Sacriston, United Kingdom
Current Conditions -  °F | °C
As of 9:50 AM on Friday 31 Oct 2014 (Local Time) from EGNT Reporting Station
Few Clouds Few Clouds  
Wind Chill: 59°   Ceiling: Unl
Heat Index: 59°   Visibility: 5mi
Dew Point: 55°   Wind: 5mph
Humidity: 88%   Direction: 160°SSE
Pressure: 29.85"   Gusts: NA
Location:  54.82°N, 1.62°W
Report Text: EGNT 310950Z 16004KT 110V220 8000 FEW020 15/13 Q1011
Loading
Personal Weather Stations






























Interactive Weather Map
Tropical Storm Tracking
New forecast layout! Learn more

10-Day Weather Forecast

Advertisements
Track Severe Weather on mobile